Fair Oaks, California
Current Conditions -  °F | °C
As of 3:50 AM on Friday 24 Oct 2014 (Local Time) from KMHR Reporting Station
Clear Clear  
Wind Chill: 54°   Ceiling: Unl
Heat Index: 54°   Visibility: 10mi
Dew Point: 54°   Wind: 3mph
Humidity: 100%   Direction: 20°NNE
Pressure: 29.97"   Gusts: NA
Location:  38.64°N, 121.27°W
Report Text: KMHR 241050Z 02003KT 10SM SKC 12/12 A2997
Loading
Personal Weather Stations






























Interactive Weather Map
Tropical Storm Tracking
New forecast layout! Learn more

10-Day Weather Forecast

Advertisements
Track Severe Weather on mobile